Arbuckle, CA

2:39 AM PDT on October 20, 2014 (GMT -0700)
Tierra Buena | Change Station
CLOSE
Current Station
Personal Weather Station
Location: Yuba City, CA
Elevation: 59 ft
Nearby Weather Stations

Elev 59 ft 39.15 °N, 121.67 °W | Updated 17 seconds ago

Clear
Clear
61.9 °F
Feels Like 61.9 °F
N
0.0
Wind Variable Wind from ESE
Gusts 6.3 mph

Today
High -- | Low -- °F
--% Chance of Precip.
Yesterday
High -- | Low -- °F
Precip. -- in
7:22 AM 6:22 PM
Waning Crescent, 12% visible
Pressure 29.88 in
Visibility 10.0 miles
Clouds Clear
Dew Point 41 °F
Humidity 46%
Rainfall 0.00 in
Snow Depth Not available.
UV 0 out of 12
Pollen 3.90 out of 12
Air Quality Not available.
Flu Activity Not available.
METAR KMYV 200853Z AUTO 15007KT 10SM CLR 16/12 A2987 RMK AO2 SLP119 T01610122 53006

More Conditions Fewer Conditions

Pressure 29.88 in
Visibility 10.0 miles
Clouds Clear
Dew Point 41 °F
Humidity 46%
Rainfall 0.00 in
Snow Depth Not available.
UV 0 out of 12
Pollen 3.90 out of 12
Air Quality Not available.
Flu Activity Not available.
METAR KMYV 200853Z AUTO 15007KT 10SM CLR 16/12 A2987 RMK AO2 SLP119 T01610122 53006

More Conditions Fewer Conditions

10-Day Weather Forecast

Almanac

Astronomy

Oct. 20, 2014 Rise Set
Actual Time 7:22 AM PDT 6:22 PM PDT
Civil Twilight 6:55 AM PDT 6:49 PM PDT
Nautical Twilight 6:24 AM PDT 7:20 PM PDT
Astronomical Twilight 5:53 AM PDT 7:51 PM PDT
Moon 4:17 AM PDT 4:46 PM PDT
Length of Visible Light 11h 53m
Length of Day
10h 59m
Tomorrow will be 2m 23s shorter.
Waning Crescent, 12% of the Moon is Illuminated
Today
Waning Crescent
Oct 23
New
Oct 30
First Quarter
Nov 6
Full
Nov 14
Last Quarter

Today's Extremes

State Highs State Lows

Community

WunderPhotos

Upload Photos

1,763,325 photos uploaded!

Nearby

Snow Depth

Station Depth Elevation
Independence Lake 0 in 8450 ft
Squaw Valley 0 in 8200 ft
Independence Camp 0 in 7000 ft
Tahoe City Cross 0 in 6750 ft
Rubicon #2 1 in 7500 ft

Earthquake Activity

City Distance Mag. Time & Date
Cobb, California 46 miles 2.5 9:25 PM PDT
2014-10-19
East Foothills, California 115 miles 2.6 8:16 AM PDT
2014-10-18
Minimum magnitude displayed is 2.5.

Coastal Water Temperatures

Place Temperature
No Stations Reporting

Nearby Weather Stations